Arnold, California
Current Conditions -  °F | °C
As of 6:35 PM on Friday 24 Oct 2014 (Local Time) from KO22 Reporting Station
Clear Clear  
Wind Chill: 66°   Ceiling: Unl
Heat Index: 66°   Visibility: 10mi
Dew Point: 39°   Wind: 0mph
Humidity: 37%   Direction: NA
Pressure: 29.92"   Gusts: NA
Location:  38.23°N, 120.37°W
Report Text: KO22 250135Z AUTO 00000KT 10SM CLR 19/04 A2992 RMK AO1
Loading
Personal Weather Stations






























Interactive Weather Map
Tropical Storm Tracking
New forecast layout! Learn more

10-Day Weather Forecast

Advertisements
Track Severe Weather on mobile